sensor_id;sensor_type;location;lat;lon;timestamp;temperature;humidity
13600;DHT22;6871;51.34740610;4.31323160;2023-02-28T00:01:45;15.70;60.00
13600;DHT22;6871;51.34740610;4.31323160;2023-02-28T00:04:14;15.80;60.00
13600;DHT22;6871;51.34740610;4.31323160;2023-02-28T00:06:44;15.80;59.90
13600;DHT22;6871;51.34740610;4.31323160;2023-02-28T00:09:13;15.80;59.90
13600;DHT22;6871;51.34740610;4.31323160;2023-02-28T00:11:42;15.80;60.00
13600;DHT22;6871;51.34740610;4.31323160;2023-02-28T00:14:12;15.80;59.80
13600;DHT22;6871;51.34740610;4.31323160;2023-02-28T00:16:41;15.80;59.90
13600;DHT22;6871;51.34740610;4.31323160;2023-02-28T00:19:10;15.80;59.90
13600;DHT22;6871;51.34740610;4.31323160;2023-02-28T00:21:41;15.80;59.90
13600;DHT22;6871;51.34740610;4.31323160;2023-02-28T00:24:10;15.70;59.80
13600;DHT22;6871;51.34740610;4.31323160;2023-02-28T00:26:40;15.70;59.90
13600;DHT22;6871;51.34740610;4.31323160;2023-02-28T00:29:09;15.70;59.80
13600;DHT22;6871;51.34740610;4.31323160;2023-02-28T00:31:38;15.70;59.80
13600;DHT22;6871;51.34740610;4.31323160;2023-02-28T00:34:09;15.70;59.80
13600;DHT22;6871;51.34740610;4.31323160;2023-02-28T00:36:38;15.70;59.90
13600;DHT22;6871;51.34740610;4.31323160;2023-02-28T00:39:08;15.70;59.90
13600;DHT22;6871;51.34740610;4.31323160;2023-02-28T00:41:38;15.70;59.80
13600;DHT22;6871;51.34740610;4.31323160;2023-02-28T00:44:07;15.70;59.70
13600;DHT22;6871;51.34740610;4.31323160;2023-02-28T00:46:36;15.70;59.80
13600;DHT22;6871;51.34740610;4.31323160;2023-02-28T00:49:06;15.70;59.80
13600;DHT22;6871;51.34740610;4.31323160;2023-02-28T00:51:35;15.70;59.80
13600;DHT22;6871;51.34740610;4.31323160;2023-02-28T00:54:05;15.70;59.80
13600;DHT22;6871;51.34740610;4.31323160;2023-02-28T00:56:34;15.70;59.80
13600;DHT22;6871;51.34740610;4.31323160;2023-02-28T00:59:03;15.70;59.70
13600;DHT22;6871;51.34740610;4.31323160;2023-02-28T01:01:32;15.70;59.70
13600;DHT22;6871;51.34740610;4.31323160;2023-02-28T01:04:02;15.70;59.70
13600;DHT22;6871;51.34740610;4.31323160;2023-02-28T01:06:31;15.70;59.70
13600;DHT22;6871;51.34740610;4.31323160;2023-02-28T01:09:01;15.70;59.70
13600;DHT22;6871;51.34740610;4.31323160;2023-02-28T01:11:31;15.70;59.80
13600;DHT22;6871;51.34740610;4.31323160;2023-02-28T01:14:01;15.70;59.80
13600;DHT22;6871;51.34740610;4.31323160;2023-02-28T01:16:31;15.70;59.70
13600;DHT22;6871;51.34740610;4.31323160;2023-02-28T01:19:00;15.70;59.70
13600;DHT22;6871;51.34740610;4.31323160;2023-02-28T01:21:30;15.70;59.70
13600;DHT22;6871;51.34740610;4.31323160;2023-02-28T01:23:59;15.70;59.60
13600;DHT22;6871;51.34740610;4.31323160;2023-02-28T01:26:29;15.70;59.60
13600;DHT22;6871;51.34740610;4.31323160;2023-02-28T01:28:58;15.70;59.80
13600;DHT22;6871;51.34740610;4.31323160;2023-02-28T01:31:28;15.70;59.70
13600;DHT22;6871;51.34740610;4.31323160;2023-02-28T01:33:57;15.70;59.60
13600;DHT22;6871;51.34740610;4.31323160;2023-02-28T01:36:26;15.70;59.70
13600;DHT22;6871;51.34740610;4.31323160;2023-02-28T01:38:56;15.60;59.60
13600;DHT22;6871;51.34740610;4.31323160;2023-02-28T01:41:27;15.60;59.50
13600;DHT22;6871;51.34740610;4.31323160;2023-02-28T01:43:59;15.60;59.60
13600;DHT22;6871;51.34740610;4.31323160;2023-02-28T01:46:33;15.60;59.60
13600;DHT22;6871;51.34740610;4.31323160;2023-02-28T01:49:07;15.60;59.60
13600;DHT22;6871;51.34740610;4.31323160;2023-02-28T01:54:18;15.60;59.60
13600;DHT22;6871;51.34740610;4.31323160;2023-02-28T01:56:51;15.60;59.60
13600;DHT22;6871;51.34740610;4.31323160;2023-02-28T01:59:24;15.60;59.60
13600;DHT22;6871;51.34740610;4.31323160;2023-02-28T02:01:55;15.60;59.70
13600;DHT22;6871;51.34740610;4.31323160;2023-02-28T02:04:27;15.60;59.70
13600;DHT22;6871;51.34740610;4.31323160;2023-02-28T02:06:57;15.60;60.60
13600;DHT22;6871;51.34740610;4.31323160;2023-02-28T02:09:27;15.60;59.70
13600;DHT22;6871;51.34740610;4.31323160;2023-02-28T02:11:56;15.60;59.70
13600;DHT22;6871;51.34740610;4.31323160;2023-02-28T02:14:37;15.60;59.70
13600;DHT22;6871;51.34740610;4.31323160;2023-02-28T02:17:15;15.60;59.70
13600;DHT22;6871;51.34740610;4.31323160;2023-02-28T02:20:16;15.60;59.70
13600;DHT22;6871;51.34740610;4.31323160;2023-02-28T02:23:09;15.50;59.60
13600;DHT22;6871;51.34740610;4.31323160;2023-02-28T02:25:40;15.50;59.80
13600;DHT22;6871;51.34740610;4.31323160;2023-02-28T02:28:28;15.50;59.80
13600;DHT22;6871;51.34740610;4.31323160;2023-02-28T02:37:24;15.60;59.80
13600;DHT22;6871;51.34740610;4.31323160;2023-02-28T02:39:58;15.60;59.80
13600;DHT22;6871;51.34740610;4.31323160;2023-02-28T02:42:29;15.60;59.70
13600;DHT22;6871;51.34740610;4.31323160;2023-02-28T02:45:03;15.60;59.60
13600;DHT22;6871;51.34740610;4.31323160;2023-02-28T02:47:33;15.60;59.70
13600;DHT22;6871;51.34740610;4.31323160;2023-02-28T02:50:04;15.60;59.60
13600;DHT22;6871;51.34740610;4.31323160;2023-02-28T02:52:38;15.60;59.50
13600;DHT22;6871;51.34740610;4.31323160;2023-02-28T02:55:10;15.60;59.60
13600;DHT22;6871;51.34740610;4.31323160;2023-02-28T02:57:43;15.60;59.70
13600;DHT22;6871;51.34740610;4.31323160;2023-02-28T03:00:16;15.60;59.50
13600;DHT22;6871;51.34740610;4.31323160;2023-02-28T03:02:47;15.60;59.60
13600;DHT22;6871;51.34740610;4.31323160;2023-02-28T03:05:21;15.60;59.60
13600;DHT22;6871;51.34740610;4.31323160;2023-02-28T03:07:51;15.60;59.60
13600;DHT22;6871;51.34740610;4.31323160;2023-02-28T03:10:31;15.50;59.50
13600;DHT22;6871;51.34740610;4.31323160;2023-02-28T03:13:11;15.60;59.60
13600;DHT22;6871;51.34740610;4.31323160;2023-02-28T03:15:46;15.50;59.60
13600;DHT22;6871;51.34740610;4.31323160;2023-02-28T03:18:17;15.50;60.50
13600;DHT22;6871;51.34740610;4.31323160;2023-02-28T03:20:50;15.50;59.60
13600;DHT22;6871;51.34740610;4.31323160;2023-02-28T03:23:22;15.50;59.60
13600;DHT22;6871;51.34740610;4.31323160;2023-02-28T03:25:57;15.50;59.70
13600;DHT22;6871;51.34740610;4.31323160;2023-02-28T03:28:33;15.50;59.60
13600;DHT22;6871;51.34740610;4.31323160;2023-02-28T03:31:06;15.50;59.60
13600;DHT22;6871;51.34740610;4.31323160;2023-02-28T03:33:39;15.50;59.70
13600;DHT22;6871;51.34740610;4.31323160;2023-02-28T03:36:12;15.50;59.70
13600;DHT22;6871;51.34740610;4.31323160;2023-02-28T03:38:44;15.50;59.60
13600;DHT22;6871;51.34740610;4.31323160;2023-02-28T03:41:17;15.50;59.60
13600;DHT22;6871;51.34740610;4.31323160;2023-02-28T03:43:50;15.50;59.60
13600;DHT22;6871;51.34740610;4.31323160;2023-02-28T03:46:22;15.50;59.60
13600;DHT22;6871;51.34740610;4.31323160;2023-02-28T03:48:55;15.50;59.70
13600;DHT22;6871;51.34740610;4.31323160;2023-02-28T03:51:26;15.50;59.70
13600;DHT22;6871;51.34740610;4.31323160;2023-02-28T03:54:01;15.50;59.70
13600;DHT22;6871;51.34740610;4.31323160;2023-02-28T03:56:34;15.50;59.60
13600;DHT22;6871;51.34740610;4.31323160;2023-02-28T03:59:06;15.50;59.60
13600;DHT22;6871;51.34740610;4.31323160;2023-02-28T04:01:38;15.50;59.50
13600;DHT22;6871;51.34740610;4.31323160;2023-02-28T04:04:09;15.50;59.60
13600;DHT22;6871;51.34740610;4.31323160;2023-02-28T04:06:39;15.50;59.60
13600;DHT22;6871;51.34740610;4.31323160;2023-02-28T04:09:11;15.50;59.50
13600;DHT22;6871;51.34740610;4.31323160;2023-02-28T04:11:42;15.50;59.50
13600;DHT22;6871;51.34740610;4.31323160;2023-02-28T04:14:12;15.60;59.50
13600;DHT22;6871;51.34740610;4.31323160;2023-02-28T04:16:43;15.50;59.50
13600;DHT22;6871;51.34740610;4.31323160;2023-02-28T04:19:13;15.50;59.50
13600;DHT22;6871;51.34740610;4.31323160;2023-02-28T04:21:45;15.50;59.60
13600;DHT22;6871;51.34740610;4.31323160;2023-02-28T04:24:16;15.50;59.70
13600;DHT22;6871;51.34740610;4.31323160;2023-02-28T04:26:47;15.50;59.60
13600;DHT22;6871;51.34740610;4.31323160;2023-02-28T04:29:19;15.50;59.50
13600;DHT22;6871;51.34740610;4.31323160;2023-02-28T04:31:49;15.50;59.60
13600;DHT22;6871;51.34740610;4.31323160;2023-02-28T04:34:19;15.50;59.50
13600;DHT22;6871;51.34740610;4.31323160;2023-02-28T04:36:49;15.50;59.50
13600;DHT22;6871;51.34740610;4.31323160;2023-02-28T04:39:18;15.50;59.60
13600;DHT22;6871;51.34740610;4.31323160;2023-02-28T04:41:48;15.50;59.70
13600;DHT22;6871;51.34740610;4.31323160;2023-02-28T04:44:17;15.50;59.80
13600;DHT22;6871;51.34740610;4.31323160;2023-02-28T04:46:48;15.50;59.70
13600;DHT22;6871;51.34740610;4.31323160;2023-02-28T04:49:18;15.50;59.80
13600;DHT22;6871;51.34740610;4.31323160;2023-02-28T04:51:47;15.50;59.80
13600;DHT22;6871;51.34740610;4.31323160;2023-02-28T04:54:17;15.50;59.90
13600;DHT22;6871;51.34740610;4.31323160;2023-02-28T04:56:47;15.50;60.00
13600;DHT22;6871;51.34740610;4.31323160;2023-02-28T04:59:17;15.50;60.00
13600;DHT22;6871;51.34740610;4.31323160;2023-02-28T05:01:48;15.50;60.00
13600;DHT22;6871;51.34740610;4.31323160;2023-02-28T05:04:17;15.50;60.00
13600;DHT22;6871;51.34740610;4.31323160;2023-02-28T05:06:47;15.50;60.00
13600;DHT22;6871;51.34740610;4.31323160;2023-02-28T05:09:16;15.40;59.90
13600;DHT22;6871;51.34740610;4.31323160;2023-02-28T05:11:45;15.40;59.80
13600;DHT22;6871;51.34740610;4.31323160;2023-02-28T05:14:15;15.40;59.80
13600;DHT22;6871;51.34740610;4.31323160;2023-02-28T05:16:44;15.40;59.80
13600;DHT22;6871;51.34740610;4.31323160;2023-02-28T05:19:14;15.40;59.70
13600;DHT22;6871;51.34740610;4.31323160;2023-02-28T05:21:49;15.50;59.70
13600;DHT22;6871;51.34740610;4.31323160;2023-02-28T05:24:19;15.50;59.60
13600;DHT22;6871;51.34740610;4.31323160;2023-02-28T05:26:52;15.50;59.50
13600;DHT22;6871;51.34740610;4.31323160;2023-02-28T05:29:21;15.50;59.70
13600;DHT22;6871;51.34740610;4.31323160;2023-02-28T05:31:51;15.50;59.30
13600;DHT22;6871;51.34740610;4.31323160;2023-02-28T05:34:20;15.50;60.10
13600;DHT22;6871;51.34740610;4.31323160;2023-02-28T05:36:49;15.50;59.40
13600;DHT22;6871;51.34740610;4.31323160;2023-02-28T05:39:19;15.50;59.40
13600;DHT22;6871;51.34740610;4.31323160;2023-02-28T05:41:48;15.50;59.50
13600;DHT22;6871;51.34740610;4.31323160;2023-02-28T05:44:17;15.50;59.50
13600;DHT22;6871;51.34740610;4.31323160;2023-02-28T05:46:47;15.50;59.50
13600;DHT22;6871;51.34740610;4.31323160;2023-02-28T05:49:16;15.50;59.70
13600;DHT22;6871;51.34740610;4.31323160;2023-02-28T05:51:45;15.50;59.70
13600;DHT22;6871;51.34740610;4.31323160;2023-02-28T05:54:15;15.50;59.70
13600;DHT22;6871;51.34740610;4.31323160;2023-02-28T05:56:44;15.50;59.70
13600;DHT22;6871;51.34740610;4.31323160;2023-02-28T05:59:14;15.50;59.70
13600;DHT22;6871;51.34740610;4.31323160;2023-02-28T06:01:45;15.40;59.60
13600;DHT22;6871;51.34740610;4.31323160;2023-02-28T06:04:17;15.40;59.50
13600;DHT22;6871;51.34740610;4.31323160;2023-02-28T06:06:48;15.50;59.70
13600;DHT22;6871;51.34740610;4.31323160;2023-02-28T06:09:17;15.40;59.60
13600;DHT22;6871;51.34740610;4.31323160;2023-02-28T06:11:48;15.40;59.50
13600;DHT22;6871;51.34740610;4.31323160;2023-02-28T06:14:19;15.40;59.50
13600;DHT22;6871;51.34740610;4.31323160;2023-02-28T06:16:48;15.40;59.50
13600;DHT22;6871;51.34740610;4.31323160;2023-02-28T06:19:18;15.40;59.60
13600;DHT22;6871;51.34740610;4.31323160;2023-02-28T06:21:49;15.40;59.70
13600;DHT22;6871;51.34740610;4.31323160;2023-02-28T06:24:20;15.50;59.80
13600;DHT22;6871;51.34740610;4.31323160;2023-02-28T06:26:49;15.50;59.80
13600;DHT22;6871;51.34740610;4.31323160;2023-02-28T06:29:19;15.50;59.40
13600;DHT22;6871;51.34740610;4.31323160;2023-02-28T06:31:48;15.50;59.40
13600;DHT22;6871;51.34740610;4.31323160;2023-02-28T06:34:18;15.50;59.50
13600;DHT22;6871;51.34740610;4.31323160;2023-02-28T06:36:50;15.50;59.50
13600;DHT22;6871;51.34740610;4.31323160;2023-02-28T06:39:18;15.50;59.40
13600;DHT22;6871;51.34740610;4.31323160;2023-02-28T06:41:48;15.50;59.70
13600;DHT22;6871;51.34740610;4.31323160;2023-02-28T06:44:19;15.40;59.80
13600;DHT22;6871;51.34740610;4.31323160;2023-02-28T06:46:49;15.50;59.80
13600;DHT22;6871;51.34740610;4.31323160;2023-02-28T06:49:18;15.40;59.60
13600;DHT22;6871;51.34740610;4.31323160;2023-02-28T06:51:48;15.40;59.50
13600;DHT22;6871;51.34740610;4.31323160;2023-02-28T06:54:17;15.40;59.30
13600;DHT22;6871;51.34740610;4.31323160;2023-02-28T06:56:47;15.40;59.10
13600;DHT22;6871;51.34740610;4.31323160;2023-02-28T06:59:16;15.40;59.00
13600;DHT22;6871;51.34740610;4.31323160;2023-02-28T07:01:45;15.40;59.10
13600;DHT22;6871;51.34740610;4.31323160;2023-02-28T07:04:15;15.40;59.30
13600;DHT22;6871;51.34740610;4.31323160;2023-02-28T07:06:44;15.40;59.30
13600;DHT22;6871;51.34740610;4.31323160;2023-02-28T07:09:13;15.50;59.40
13600;DHT22;6871;51.34740610;4.31323160;2023-02-28T07:11:43;15.50;59.40
13600;DHT22;6871;51.34740610;4.31323160;2023-02-28T07:14:13;15.50;59.40
13600;DHT22;6871;51.34740610;4.31323160;2023-02-28T07:16:42;15.50;59.40
13600;DHT22;6871;51.34740610;4.31323160;2023-02-28T07:19:12;15.50;59.20
13600;DHT22;6871;51.34740610;4.31323160;2023-02-28T07:21:41;15.50;59.10
13600;DHT22;6871;51.34740610;4.31323160;2023-02-28T07:24:10;15.50;59.00
13600;DHT22;6871;51.34740610;4.31323160;2023-02-28T07:26:41;15.50;59.10
13600;DHT22;6871;51.34740610;4.31323160;2023-02-28T07:29:11;15.50;59.20
13600;DHT22;6871;51.34740610;4.31323160;2023-02-28T07:31:40;15.50;59.30
13600;DHT22;6871;51.34740610;4.31323160;2023-02-28T07:34:09;15.50;59.40
13600;DHT22;6871;51.34740610;4.31323160;2023-02-28T07:36:39;15.50;59.30
13600;DHT22;6871;51.34740610;4.31323160;2023-02-28T07:39:08;15.50;59.30
13600;DHT22;6871;51.34740610;4.31323160;2023-02-28T07:41:38;15.50;59.40
13600;DHT22;6871;51.34740610;4.31323160;2023-02-28T07:44:10;15.50;59.70
13600;DHT22;6871;51.34740610;4.31323160;2023-02-28T07:46:40;15.40;59.60
13600;DHT22;6871;51.34740610;4.31323160;2023-02-28T07:49:09;15.40;59.70
13600;DHT22;6871;51.34740610;4.31323160;2023-02-28T07:51:39;15.40;59.80
13600;DHT22;6871;51.34740610;4.31323160;2023-02-28T07:54:09;15.40;59.80
13600;DHT22;6871;51.34740610;4.31323160;2023-02-28T07:56:38;15.40;59.60
13600;DHT22;6871;51.34740610;4.31323160;2023-02-28T07:59:07;15.40;59.40
13600;DHT22;6871;51.34740610;4.31323160;2023-02-28T08:01:37;15.40;59.60
13600;DHT22;6871;51.34740610;4.31323160;2023-02-28T08:04:06;15.40;59.80
13600;DHT22;6871;51.34740610;4.31323160;2023-02-28T08:06:35;15.50;59.80
13600;DHT22;6871;51.34740610;4.31323160;2023-02-28T08:09:05;15.50;59.70
13600;DHT22;6871;51.34740610;4.31323160;2023-02-28T08:11:34;15.50;59.70
13600;DHT22;6871;51.34740610;4.31323160;2023-02-28T08:14:04;15.50;59.50
13600;DHT22;6871;51.34740610;4.31323160;2023-02-28T08:16:33;15.50;59.20
13600;DHT22;6871;51.34740610;4.31323160;2023-02-28T08:19:02;15.50;59.40
13600;DHT22;6871;51.34740610;4.31323160;2023-02-28T08:21:32;15.50;59.40
13600;DHT22;6871;51.34740610;4.31323160;2023-02-28T08:24:01;15.50;59.70
13600;DHT22;6871;51.34740610;4.31323160;2023-02-28T08:26:30;15.50;59.70
13600;DHT22;6871;51.34740610;4.31323160;2023-02-28T08:29:00;15.50;59.60
13600;DHT22;6871;51.34740610;4.31323160;2023-02-28T08:31:29;15.50;59.50
13600;DHT22;6871;51.34740610;4.31323160;2023-02-28T08:33:58;15.50;59.50
13600;DHT22;6871;51.34740610;4.31323160;2023-02-28T08:36:28;15.50;59.50
13600;DHT22;6871;51.34740610;4.31323160;2023-02-28T08:38:58;15.50;59.60
13600;DHT22;6871;51.34740610;4.31323160;2023-02-28T08:41:28;15.50;59.70
13600;DHT22;6871;51.34740610;4.31323160;2023-02-28T08:43:57;15.50;59.70
13600;DHT22;6871;51.34740610;4.31323160;2023-02-28T08:46:27;15.40;59.80
13600;DHT22;6871;51.34740610;4.31323160;2023-02-28T08:48:58;15.50;59.80
13600;DHT22;6871;51.34740610;4.31323160;2023-02-28T08:51:29;15.40;59.60
13600;DHT22;6871;51.34740610;4.31323160;2023-02-28T08:53:59;15.40;59.80
13600;DHT22;6871;51.34740610;4.31323160;2023-02-28T08:56:29;15.40;59.90
13600;DHT22;6871;51.34740610;4.31323160;2023-02-28T08:58:58;15.40;60.00
13600;DHT22;6871;51.34740610;4.31323160;2023-02-28T09:01:28;15.40;60.30
13600;DHT22;6871;51.34740610;4.31323160;2023-02-28T09:03:59;15.40;60.30
13600;DHT22;6871;51.34740610;4.31323160;2023-02-28T09:06:30;15.40;60.30
13600;DHT22;6871;51.34740610;4.31323160;2023-02-28T09:09:00;15.40;60.30
13600;DHT22;6871;51.34740610;4.31323160;2023-02-28T09:11:31;15.40;60.10
13600;DHT22;6871;51.34740610;4.31323160;2023-02-28T09:14:02;15.40;60.00
13600;DHT22;6871;51.34740610;4.31323160;2023-02-28T09:16:33;15.40;60.00
13600;DHT22;6871;51.34740610;4.31323160;2023-02-28T09:19:02;15.40;60.10
13600;DHT22;6871;51.34740610;4.31323160;2023-02-28T09:21:32;15.50;60.30
13600;DHT22;6871;51.34740610;4.31323160;2023-02-28T09:24:01;15.50;60.10
13600;DHT22;6871;51.34740610;4.31323160;2023-02-28T09:26:31;15.50;61.20
13600;DHT22;6871;51.34740610;4.31323160;2023-02-28T09:29:00;15.50;60.30
13600;DHT22;6871;51.34740610;4.31323160;2023-02-28T09:31:30;15.50;60.10
13600;DHT22;6871;51.34740610;4.31323160;2023-02-28T09:33:59;15.50;59.90
13600;DHT22;6871;51.34740610;4.31323160;2023-02-28T09:36:29;15.50;60.10
13600;DHT22;6871;51.34740610;4.31323160;2023-02-28T09:38:58;15.50;60.40
13600;DHT22;6871;51.34740610;4.31323160;2023-02-28T09:41:30;15.50;60.60
13600;DHT22;6871;51.34740610;4.31323160;2023-02-28T09:44:03;15.50;60.40
13600;DHT22;6871;51.34740610;4.31323160;2023-02-28T09:46:35;15.50;60.20
13600;DHT22;6871;51.34740610;4.31323160;2023-02-28T09:49:11;15.50;60.10
13600;DHT22;6871;51.34740610;4.31323160;2023-02-28T09:51:49;15.60;60.00
13600;DHT22;6871;51.34740610;4.31323160;2023-02-28T09:54:22;15.60;59.90
13600;DHT22;6871;51.34740610;4.31323160;2023-02-28T09:56:53;15.60;60.00
13600;DHT22;6871;51.34740610;4.31323160;2023-02-28T09:59:41;15.60;60.30
13600;DHT22;6871;51.34740610;4.31323160;2023-02-28T10:02:19;15.50;60.30
13600;DHT22;6871;51.34740610;4.31323160;2023-02-28T10:04:50;15.50;60.00
13600;DHT22;6871;51.34740610;4.31323160;2023-02-28T10:07:32;15.50;60.00
13600;DHT22;6871;51.34740610;4.31323160;2023-02-28T10:10:04;15.50;60.00
13600;DHT22;6871;51.34740610;4.31323160;2023-02-28T10:12:34;15.50;60.00
13600;DHT22;6871;51.34740610;4.31323160;2023-02-28T10:15:07;15.60;60.10
13600;DHT22;6871;51.34740610;4.31323160;2023-02-28T10:17:40;15.60;60.10
13600;DHT22;6871;51.34740610;4.31323160;2023-02-28T10:20:14;15.60;60.00
13600;DHT22;6871;51.34740610;4.31323160;2023-02-28T10:22:52;15.60;59.90
13600;DHT22;6871;51.34740610;4.31323160;2023-02-28T10:25:24;15.60;59.90
13600;DHT22;6871;51.34740610;4.31323160;2023-02-28T10:27:55;15.60;59.90
13600;DHT22;6871;51.34740610;4.31323160;2023-02-28T10:30:25;15.70;60.00
13600;DHT22;6871;51.34740610;4.31323160;2023-02-28T10:32:54;15.70;60.00
13600;DHT22;6871;51.34740610;4.31323160;2023-02-28T10:35:25;15.70;59.90
13600;DHT22;6871;51.34740610;4.31323160;2023-02-28T10:37:57;15.70;59.80
13600;DHT22;6871;51.34740610;4.31323160;2023-02-28T10:40:32;15.70;59.70
13600;DHT22;6871;51.34740610;4.31323160;2023-02-28T10:43:05;15.80;59.70
13600;DHT22;6871;51.34740610;4.31323160;2023-02-28T10:45:35;15.80;59.80
13600;DHT22;6871;51.34740610;4.31323160;2023-02-28T10:48:06;15.80;59.80
13600;DHT22;6871;51.34740610;4.31323160;2023-02-28T10:50:42;15.80;59.90
13600;DHT22;6871;51.34740610;4.31323160;2023-02-28T10:53:25;15.70;60.00
13600;DHT22;6871;51.34740610;4.31323160;2023-02-28T10:55:59;15.80;60.30
13600;DHT22;6871;51.34740610;4.31323160;2023-02-28T10:58:32;15.70;60.30
13600;DHT22;6871;51.34740610;4.31323160;2023-02-28T11:01:01;15.80;60.20
13600;DHT22;6871;51.34740610;4.31323160;2023-02-28T11:03:32;15.90;60.00
13600;DHT22;6871;51.34740610;4.31323160;2023-02-28T11:06:07;15.90;60.20
13600;DHT22;6871;51.34740610;4.31323160;2023-02-28T11:08:46;16.00;60.40
13600;DHT22;6871;51.34740610;4.31323160;2023-02-28T11:11:17;16.10;60.00
13600;DHT22;6871;51.34740610;4.31323160;2023-02-28T11:13:50;16.10;59.70
13600;DHT22;6871;51.34740610;4.31323160;2023-02-28T11:16:19;16.20;59.40
13600;DHT22;6871;51.34740610;4.31323160;2023-02-28T11:18:52;16.30;59.20
13600;DHT22;6871;51.34740610;4.31323160;2023-02-28T11:21:24;16.30;58.80
13600;DHT22;6871;51.34740610;4.31323160;2023-02-28T11:23:58;16.40;58.70
13600;DHT22;6871;51.34740610;4.31323160;2023-02-28T11:26:45;16.40;58.40
13600;DHT22;6871;51.34740610;4.31323160;2023-02-28T11:29:22;16.40;58.70
13600;DHT22;6871;51.34740610;4.31323160;2023-02-28T11:32:11;16.50;58.90
13600;DHT22;6871;51.34740610;4.31323160;2023-02-28T11:34:39;16.50;59.00
13600;DHT22;6871;51.34740610;4.31323160;2023-02-28T11:37:13;16.50;59.00
13600;DHT22;6871;51.34740610;4.31323160;2023-02-28T11:39:44;16.60;59.10
13600;DHT22;6871;51.34740610;4.31323160;2023-02-28T11:45:24;16.60;59.10
13600;DHT22;6871;51.34740610;4.31323160;2023-02-28T11:47:58;16.60;59.30
13600;DHT22;6871;51.34740610;4.31323160;2023-02-28T11:53:29;16.60;59.30
13600;DHT22;6871;51.34740610;4.31323160;2023-02-28T11:56:00;16.70;59.20
13600;DHT22;6871;51.34740610;4.31323160;2023-02-28T11:58:35;16.70;59.30
13600;DHT22;6871;51.34740610;4.31323160;2023-02-28T12:01:13;16.70;59.20
13600;DHT22;6871;51.34740610;4.31323160;2023-02-28T12:03:49;16.70;59.20
13600;DHT22;6871;51.34740610;4.31323160;2023-02-28T12:06:22;16.70;58.70
13600;DHT22;6871;51.34740610;4.31323160;2023-02-28T12:09:00;16.70;58.60
13600;DHT22;6871;51.34740610;4.31323160;2023-02-28T12:11:36;16.70;58.50
13600;DHT22;6871;51.34740610;4.31323160;2023-02-28T12:14:30;16.70;58.50
13600;DHT22;6871;51.34740610;4.31323160;2023-02-28T12:17:10;16.70;58.80
13600;DHT22;6871;51.34740610;4.31323160;2023-02-28T12:19:43;16.70;59.00
13600;DHT22;6871;51.34740610;4.31323160;2023-02-28T12:22:30;16.70;59.30
13600;DHT22;6871;51.34740610;4.31323160;2023-02-28T12:25:23;16.70;59.50
13600;DHT22;6871;51.34740610;4.31323160;2023-02-28T12:27:53;16.60;59.50
13600;DHT22;6871;51.34740610;4.31323160;2023-02-28T12:30:25;16.60;59.70
13600;DHT22;6871;51.34740610;4.31323160;2023-02-28T12:35:37;16.50;59.70
13600;DHT22;6871;51.34740610;4.31323160;2023-02-28T12:38:10;16.50;59.90
13600;DHT22;6871;51.34740610;4.31323160;2023-02-28T12:40:47;16.50;60.10
13600;DHT22;6871;51.34740610;4.31323160;2023-02-28T12:43:17;16.50;60.20
13600;DHT22;6871;51.34740610;4.31323160;2023-02-28T12:45:50;16.50;60.30
13600;DHT22;6871;51.34740610;4.31323160;2023-02-28T12:48:24;16.50;60.40
13600;DHT22;6871;51.34740610;4.31323160;2023-02-28T12:50:53;16.50;60.40
13600;DHT22;6871;51.34740610;4.31323160;2023-02-28T12:53:27;16.40;60.30
13600;DHT22;6871;51.34740610;4.31323160;2023-02-28T12:56:04;16.40;60.20
13600;DHT22;6871;51.34740610;4.31323160;2023-02-28T12:58:37;16.40;60.20
13600;DHT22;6871;51.34740610;4.31323160;2023-02-28T13:01:32;16.40;60.00
13600;DHT22;6871;51.34740610;4.31323160;2023-02-28T13:10:04;16.30;60.20
13600;DHT22;6871;51.34740610;4.31323160;2023-02-28T13:12:36;16.30;60.40
13600;DHT22;6871;51.34740610;4.31323160;2023-02-28T13:15:08;16.30;60.60
13600;DHT22;6871;51.34740610;4.31323160;2023-02-28T13:17:41;16.30;60.70
13600;DHT22;6871;51.34740610;4.31323160;2023-02-28T13:20:18;16.30;60.70
13600;DHT22;6871;51.34740610;4.31323160;2023-02-28T13:22:49;16.30;60.60
13600;DHT22;6871;51.34740610;4.31323160;2023-02-28T13:25:57;16.30;60.90
13600;DHT22;6871;51.34740610;4.31323160;2023-02-28T13:34:49;16.30;61.40
13600;DHT22;6871;51.34740610;4.31323160;2023-02-28T13:37:37;16.20;61.60
13600;DHT22;6871;51.34740610;4.31323160;2023-02-28T13:40:31;16.20;61.70
13600;DHT22;6871;51.34740610;4.31323160;2023-02-28T13:43:08;16.20;61.50
13600;DHT22;6871;51.34740610;4.31323160;2023-02-28T13:45:38;16.20;61.40
13600;DHT22;6871;51.34740610;4.31323160;2023-02-28T13:48:19;16.20;61.00
13600;DHT22;6871;51.34740610;4.31323160;2023-02-28T13:50:49;16.20;61.30
13600;DHT22;6871;51.34740610;4.31323160;2023-02-28T13:56:35;16.20;61.90
13600;DHT22;6871;51.34740610;4.31323160;2023-02-28T13:59:14;16.20;61.80
13600;DHT22;6871;51.34740610;4.31323160;2023-02-28T14:01:56;16.20;61.80
13600;DHT22;6871;51.34740610;4.31323160;2023-02-28T14:07:42;16.20;62.20
13600;DHT22;6871;51.34740610;4.31323160;2023-02-28T14:12:59;16.20;62.70
13600;DHT22;6871;51.34740610;4.31323160;2023-02-28T14:15:46;16.20;62.40
13600;DHT22;6871;51.34740610;4.31323160;2023-02-28T14:18:24;16.20;62.20
13600;DHT22;6871;51.34740610;4.31323160;2023-02-28T14:23:58;16.30;61.70
13600;DHT22;6871;51.34740610;4.31323160;2023-02-28T14:26:34;16.20;61.70
13600;DHT22;6871;51.34740610;4.31323160;2023-02-28T14:29:16;16.30;61.90
13600;DHT22;6871;51.34740610;4.31323160;2023-02-28T14:31:47;16.20;61.80
13600;DHT22;6871;51.34740610;4.31323160;2023-02-28T14:34:40;16.20;61.70
13600;DHT22;6871;51.34740610;4.31323160;2023-02-28T14:37:13;16.20;61.40
13600;DHT22;6871;51.34740610;4.31323160;2023-02-28T14:39:44;16.20;61.50
13600;DHT22;6871;51.34740610;4.31323160;2023-02-28T14:42:32;16.20;61.50
13600;DHT22;6871;51.34740610;4.31323160;2023-02-28T14:45:03;16.20;61.40